Bern, Idaho
Current Conditions -  °F | °C
As of 2:35 AM on Sunday 26 Oct 2014 (Local Time) from KAFO Reporting Station
Broken Clouds Broken Clouds  
Wind Chill: 43°   Ceiling: 3700
Heat Index: 43°   Visibility: 10mi
Dew Point: 36°   Wind: 0mph
Humidity: 76%   Direction: NA
Pressure: 30.03"   Gusts: NA
Location:  42.34°N, 111.39°W
Report Text: KAFO 260835Z AUTO 00000KT 10SM SCT028 BKN037 BKN044 06/02 A3003 RMK AO2
Loading
Personal Weather Stations






























Interactive Weather Map
Tropical Storm Tracking
New forecast layout! Learn more

10-Day Weather Forecast

Advertisements
Track Severe Weather on mobile